Flight Track Log - Related Links

Times and Time Zones

All times are in EST time to prevent confusion due to time zone crossing. See the SKW6345 flight status page for this flight to view local times or setup timezone preferences in your user account.

Time Position Orientation Groundspeed Altitude Reporting Facility
EST Latitude Longitude Course Direction KTS MPH feet Rate Location/Type
Tue 12:53:40 PM 39.2433 -106.8742 72° East 178 205 9,700  Level Denver Center
Tue 12:54:42 PM 39.2606 -106.9314 291° West 190 219 12,300 2,323 Climbing Denver Center
Tue 12:55:44 PM 39.3208 -106.9428 352° North 251 289 14,500 2,419 Climbing Denver Center
Tue 12:56:00 PM 39.3657 -106.3903 101° East  Level Estimated
Tue 12:56:46 PM 39.3489 -106.7986 76° East 363 418 17,300  Level Denver Center
Tue 12:57:00 PM 39.3327 -106.2693 109° East  Level FlightAware Approximate
Tue 12:57:48 PM 39.3508 -106.6614 89° East 382 440 19,100  Level Denver Center
Tue 12:58:00 PM 39.3726 -106.1519 90° East  Level Estimated
Tue 12:59:00 PM 39.4085 -106.0460 72° East  Level Estimated
Tue 12:59:03 PM 39.3522 -106.4522 89° East 441 507 21,000  Level Denver Center
Tue 01:00:05 PM 39.3478 -106.2886 92° East 473 544 21,000  Level Denver Center
Tue 01:01:07 PM 39.3600 -106.1117 85° East 484 557 21,000 -290 Level Denver Center
Tue 01:02:09 PM 39.3703 -105.9381 86° East 485 558 20,400 -823 Descending Denver Center
Tue 01:03:11 PM 39.3789 -105.7711 86° East 472 543 19,300 -968 Descending Denver Center
Tue 01:04:13 PM 39.3889 -105.5892 86° East 420 483 18,400 -1,279 Descending Denver Center
Tue 01:05:27 PM 39.4006 -105.3950 85° East 458 527 16,400 -1,632 Descending Denver Center
Tue 01:06:29 PM 39.4064 -105.2331 87° East 449 517 14,700 -1,548 Descending Denver Center
Tue 01:07:31 PM 39.4142 -105.0669 86° East 434 499 13,200 -912 Descending Denver Center
Tue 01:08:34 PM 39.4275 -104.9289 83° East 396 456 12,800 -864 Descending Denver Center
Tue 01:09:36 PM 39.5044 -104.8292 45° Northeast 368 423 11,400 -1,258 Descending Denver Center
Tue 01:10:38 PM 39.5806 -104.7792 27° Northeast 311 358 10,200 -1,258 Descending Denver Center
Tue 01:11:40 PM 39.6525 -104.7289 28° Northeast 280 322 8,800 -1,065 Descending Denver Center
Tue 01:12:42 PM 39.7125 -104.6892 27° Northeast 247 284 8,000 -919 Descending Denver Center
Tue 01:13:44 PM 39.7631 -104.6603 24° Northeast 181 208 6,900 -919 Descending Denver Center
Tue 01:14:46 PM 39.8008 -104.6608 359° North 137 158 6,100 -677 Descending Denver Center
Tue 01:15:48 PM 39.8364 -104.6603 North 129 148 5,500 -581 Descending Denver Center
Tue 01:17:00 PM 39.8500 -104.6667 North  Level FlightAware Approximate
Tue 01:24:00 PM 39.8617 -104.6732 North  Level Estimated

Login

Don't have an account? Register now (free) for customized features, flight alerts, and more!